Latest Weather Observations for Kalumburu

IDD60801

Issued at 8:01 pm CST Friday 4 September 2015 (issued every 30 minutes, with the page automatically refreshed every 10 minutes)

About weather observations | Map of weather stations | Latest weather observations for NT | Other Formats
Station Details ID: 001019 Name: KALUMBURU Lat: -14.30 Lon: 126.65 Height: 23.0 m
Data from the previous 72 hours. | See also: Recent months at Kalumburu
Date/Time
CST
Temp
°C
App
Temp
°C
Dew
Point
Rel
Hum
%
Delta-T
°C
Wind Press
QNH
hPa
Press
MSL
hPa
Rain
since 9 am
mm
Dir
 
Spd
km/h
Gust
km/h
Spd
kts
Gust
kts
04/08:00pm 26.5 28.2 21.0 72 3.6 NNW 13 22 7 12 1015.6 1015.4 0.0
04/07:30pm 26.8 28.2 20.4 68 4.2 NNW 13 19 7 10 1015.1 1014.9 0.0
04/07:00pm 27.2 28.6 20.3 66 4.5 NNW 13 20 7 11 1014.7 1014.5 0.0
04/06:30pm 28.0 28.6 20.3 63 5.1 NNW 17 26 9 14 1014.3 1014.1 0.0
04/06:00pm 28.7 28.6 19.9 59 5.8 NNW 20 30 11 16 1013.9 1013.7 0.0
04/05:30pm 29.4 28.2 18.5 52 7.0 NNW 22 33 12 18 1013.5 1013.3 0.0
04/05:00pm 30.6 30.2 19.3 51 7.4 NNW 20 30 11 16 1013.3 1013.1 0.0
04/04:30pm 30.9 30.2 19.6 51 7.4 NNW 22 32 12 17 1013.1 1012.9 0.0
04/04:00pm 31.9 29.7 17.0 41 9.5 NNW 24 35 13 19 1013.0 1012.8 0.0
04/03:30pm 33.6 29.8 13.6 29 12.1 N 26 39 14 21 1013.0 1012.8 0.0
04/03:00pm 34.4 30.1 13.3 28 12.8 N 28 41 15 22 1013.1 1012.9 0.0
04/02:30pm 33.9 29.5 12.8 28 12.7 N 28 43 15 23 1013.2 1013.0 0.0
04/02:00pm 37.1 32.8 5.2 14 17.3 ESE 17 28 9 15 1013.4 1013.2 0.0
04/01:30pm 36.8 32.4 4.9 14 17.2 E 17 26 9 14 1013.9 1013.7 0.0
04/01:00pm 36.7 32.5 5.9 15 16.9 E 17 26 9 14 1014.4 1014.2 0.0
04/12:30pm 35.9 31.4 6.2 16 16.3 E 19 33 10 18 1014.9 1014.7 0.0
04/12:00pm 35.6 32.4 6.8 17 15.9 ESE 13 26 7 14 1015.6 1015.4 0.0
04/11:30am 35.0 32.8 9.4 21 14.7 ESE 11 19 6 10 1016.0 1015.8 0.0
04/11:00am 32.4 31.3 13.1 31 11.6 SSW 11 15 6 8 1016.4 1016.2 0.0
04/10:30am 32.1 32.4 15.1 35 10.5 SSE 7 13 4 7 1016.6 1016.4 0.0
04/10:00am 29.7 30.8 17.2 47 7.9 S 7 11 4 6 1016.7 1016.5 0.0
04/09:30am 27.6 28.9 17.5 54 6.4 SW 7 9 4 5 1016.6 1016.4 0.0
04/09:00am 26.6 29.7 19.5 65 4.6 SSE 2 6 1 3 1016.6 1016.4 0.0
04/08:30am 24.0 27.9 21.1 84 1.9 NNW 2 7 1 4 1016.4 1016.2 0.0
04/08:00am 20.9 24.0 19.6 92 0.8 SW 2 7 1 4 1016.0 1015.8 0.0
04/07:30am 18.3 19.3 16.8 91 0.9 ENE 7 11 4 6 1015.8 1015.6 0.0
04/07:00am 18.0 19.1 16.5 91 0.9 SW 6 7 3 4 1015.2 1015.0 0.0
04/06:30am 17.4 19.3 15.7 90 1.0 CALM 0 6 0 3 1015.0 1014.8 0.0
04/06:00am 18.2 20.4 16.5 90 1.0 CALM 0 0 0 0 1014.7 1014.5 0.0
04/05:30am 18.0 20.1 16.2 89 1.1 CALM 0 0 0 0 1014.5 1014.3 0.0
04/05:00am 18.7 21.1 17.0 90 1.0 CALM 0 0 0 0 1014.5 1014.3 0.0
04/04:30am 19.0 21.5 17.3 90 1.0 CALM 0 0 0 0 1014.4 1014.2 0.0
04/04:00am 19.3 21.9 17.6 90 1.0 CALM 0 0 0 0 1014.4 1014.2 0.0
04/03:30am 19.3 21.8 17.3 88 1.2 CALM 0 0 0 0 1014.6 1014.4 0.0
04/03:00am 19.8 22.5 17.8 88 1.2 CALM 0 0 0 0 1014.7 1014.5 0.0
04/02:30am 19.9 22.7 17.9 88 1.2 CALM 0 0 0 0 1014.9 1014.7 0.0
04/02:00am 19.2 21.5 16.8 86 1.4 CALM 0 0 0 0 1015.3 1015.1 0.0
04/01:30am 19.8 22.4 17.6 87 1.3 CALM 0 0 0 0 1015.5 1015.3 0.0
04/01:00am 20.4 23.1 17.8 85 1.6 CALM 0 0 0 0 1015.8 1015.6 0.0
04/12:30am 20.4 23.0 17.4 83 1.8 CALM 0 0 0 0 1016.3 1016.1 0.0
04/12:00am 20.9 23.4 17.3 80 2.2 CALM 0 0 0 0 1016.5 1016.3 0.0
 
Date/Time
CST
Temp
°C
App
Temp
°C
Dew
Point
Rel
Hum
%
Delta-T
°C
Wind Press
QNH
hPa
Press
MSL
hPa
Rain
since 9 am
mm
Dir
 
Spd
km/h
Gust
km/h
Spd
kts
Gust
kts
03/11:30pm 21.2 23.8 17.6 80 2.2 CALM 0 0 0 0 1016.6 1016.4 0.0
03/11:00pm 22.0 24.6 17.6 76 2.7 CALM 0 0 0 0 1016.6 1016.4 0.0
03/10:30pm 22.3 25.0 17.7 75 2.8 CALM 0 0 0 0 1016.6 1016.4 0.0
03/10:00pm 23.3 25.9 17.5 70 3.6 CALM 0 0 0 0 1016.6 1016.4 0.0
03/09:30pm 24.8 26.6 17.5 64 4.5 NW 4 6 2 3 1016.4 1016.2 0.0
03/09:00pm 26.1 27.5 17.7 60 5.3 NNW 7 13 4 7 1016.1 1015.9 0.0
03/08:30pm 26.8 26.8 17.3 56 5.9 N 13 17 7 9 1015.7 1015.5 0.0
03/08:00pm 26.8 27.4 17.6 57 5.8 N 11 17 6 9 1015.1 1014.9 0.0
03/07:30pm 27.2 28.0 18.2 58 5.7 N 11 17 6 9 1014.6 1014.4 0.0
03/07:00pm 27.5 27.8 17.1 53 6.5 NNW 11 19 6 10 1014.2 1014.0 0.0
03/06:30pm 28.8 28.8 17.3 49 7.3 NNW 13 24 7 13 1013.8 1013.6 0.0
03/06:00pm 29.5 27.8 16.3 45 8.2 NNW 20 32 11 17 1013.6 1013.4 0.0
03/05:30pm 29.8 27.3 16.2 43 8.5 NNW 24 33 13 18 1013.3 1013.1 0.0
03/05:00pm 30.7 28.9 17.0 43 8.7 NNW 22 33 12 18 1013.1 1012.9 0.0
03/04:30pm 31.3 28.9 16.5 41 9.3 NNW 24 37 13 20 1013.0 1012.8 0.0
03/04:00pm 31.7 28.7 16.8 40 9.4 NNW 28 39 15 21 1012.8 1012.6 0.0
03/03:30pm 33.0 30.2 16.4 37 10.5 NNW 26 39 14 21 1012.8 1012.6 0.0
03/03:00pm 33.9 29.8 14.9 32 11.8 NNW 30 43 16 23 1012.8 1012.6 0.0
03/02:30pm 35.2 30.0 12.8 26 13.5 N 32 48 17 26 1013.0 1012.8 0.0
03/02:25pm 35.3 30.3 12.3 25 13.8 N 30 48 16 26 1013.0 1012.8 0.0
03/02:21pm 35.4 31.0 11.7 23 14.1 N 26 41 14 22 1012.9 1012.7 0.0
03/02:00pm 37.7 34.2 5.6 14 17.6 ENE 13 20 7 11 1013.1 1012.9 0.0
03/01:30pm 37.5 34.0 5.5 14 17.5 ENE 13 28 7 15 1013.4 1013.2 0.0
03/01:00pm 36.6 32.6 4.8 14 17.1 E 15 24 8 13 1013.9 1013.7 0.0
03/12:30pm 36.1 32.4 4.4 14 16.9 S 13 24 7 13 1014.3 1014.1 0.0
03/12:00pm 35.9 32.2 4.2 14 16.8 SSW 13 24 7 13 1014.7 1014.5 0.0
03/11:30am 34.9 31.2 4.4 15 16.2 S 13 22 7 12 1015.2 1015.0 0.0
03/11:00am 34.0 29.8 5.5 17 15.3 S 17 26 9 14 1015.6 1015.4 0.0
03/10:30am 32.7 29.0 6.1 19 14.3 S 15 28 8 15 1016.1 1015.9 0.0
03/10:00am 30.5 28.3 9.4 27 11.8 S 11 15 6 8 1016.2 1016.0 0.0
03/09:30am 28.1 26.3 10.8 34 9.8 S 11 15 6 8 1016.3 1016.1 0.0
03/09:00am 26.3 25.3 12.4 42 8.0 S 9 13 5 7 1016.3 1016.1 0.0
03/08:30am 24.5 24.1 13.1 49 6.6 S 7 13 4 7 1016.1 1015.9 0.0
03/08:00am 22.6 22.9 15.0 62 4.5 S 7 11 4 6 1015.9 1015.7 0.0
03/07:30am 19.0 19.6 15.7 81 2.0 SSE 7 13 4 7 1015.7 1015.5 0.0
03/07:00am 17.0 17.2 14.8 87 1.3 S 7 9 4 5 1015.3 1015.1 0.0
03/06:30am 17.4 18.2 14.7 84 1.6 S 4 9 2 5 1014.9 1014.7 0.0
03/06:00am 17.7 19.4 15.1 85 1.5 CALM 0 0 0 0 1014.7 1014.5 0.0
03/05:30am 18.0 19.6 14.9 82 1.8 CALM 0 0 0 0 1014.5 1014.3 0.0
03/05:00am 18.7 20.5 15.6 82 1.8 CALM 0 0 0 0 1014.5 1014.3 0.0
03/04:30am 18.4 20.1 15.1 81 1.9 CALM 0 0 0 0 1014.5 1014.3 0.0
03/04:00am 18.6 20.3 15.1 80 2.0 CALM 0 0 0 0 1014.6 1014.4 0.0
03/03:30am 18.7 19.0 14.6 77 2.4 E 6 7 3 4 1014.7 1014.5 0.0
03/03:00am 18.9 20.1 14.8 77 2.4 E 2 7 1 4 1014.7 1014.5 0.0
03/02:30am 19.0 20.4 14.3 74 2.7 CALM 0 6 0 3 1014.9 1014.7 0.0
03/02:00am 19.2 20.4 13.8 71 3.1 CALM 0 0 0 0 1015.3 1015.1 0.0
03/01:30am 19.6 20.8 13.8 69 3.3 CALM 0 0 0 0 1015.5 1015.3 0.0
03/01:00am 20.0 21.4 14.4 70 3.3 CALM 0 0 0 0 1015.9 1015.7 0.0
03/12:30am 20.1 20.5 13.6 66 3.7 SE 4 7 2 4 1016.1 1015.9 0.0
03/12:00am 20.5 21.6 13.5 64 4.0 CALM 0 0 0 0 1016.1 1015.9 0.0
 
Date/Time
CST
Temp
°C
App
Temp
°C
Dew
Point
Rel
Hum
%
Delta-T
°C
Wind Press
QNH
hPa
Press
MSL
hPa
Rain
since 9 am
mm
Dir
 
Spd
km/h
Gust
km/h
Spd
kts
Gust
kts
02/11:30pm 21.3 22.2 13.0 59 4.7 CALM 0 0 0 0 1016.1 1015.9 0.0
02/11:00pm 21.9 22.6 13.5 59 4.9 WNW 2 7 1 4 1016.0 1015.8 0.0
02/10:30pm 22.0 21.8 13.1 57 5.1 NNW 6 7 3 4 1015.9 1015.7 0.0
02/10:00pm 23.3 23.5 12.9 52 6.0 WNW 4 9 2 5 1015.7 1015.5 0.0
02/09:30pm 23.7 24.2 11.7 47 6.8 CALM 0 0 0 0 1015.5 1015.3 0.0
02/09:00pm 24.9 24.2 10.0 39 8.2 NW 4 6 2 3 1015.2 1015.0 0.0
02/08:30pm 26.7 25.1 8.6 32 9.8 NNW 7 11 4 6 1014.6 1014.4 0.0
02/08:00pm 27.8 25.8 10.1 33 9.9 NW 11 15 6 8 1014.2 1014.0 0.0
02/07:30pm 28.5 26.9 14.0 41 8.7 NW 15 20 8 11 1013.6 1013.4 0.0
02/07:00pm 29.8 26.4 7.7 25 12.0 NW 15 20 8 11 1013.3 1013.1 0.0
02/06:30pm 30.9 28.3 9.2 26 12.2 NW 13 20 7 11 1012.9 1012.7 0.0
02/06:00pm 31.9 28.3 10.0 26 12.5 N 19 26 10 14 1012.3 1012.1 0.0
02/05:30pm 32.7 29.2 10.1 25 13.0 NNW 19 26 10 14 1011.9 1011.7 0.0
02/05:00pm 33.0 29.7 11.5 27 12.6 NNW 20 30 11 16 1011.7 1011.5 0.0
02/04:30pm 33.6 30.6 12.6 28 12.6 NNW 20 30 11 16 1011.8 1011.6 0.0
02/04:00pm 33.7 30.4 11.5 26 13.1 NNW 20 30 11 16 1011.8 1011.6 0.0
02/03:30pm 34.0 30.4 11.8 26 13.2 NW 22 32 12 17 1011.9 1011.7 0.0
02/03:00pm 34.3 30.4 10.8 24 13.7 NNW 22 30 12 16 1012.1 1011.9 0.0
02/02:30pm 35.0 31.8 10.1 22 14.4 NNW 17 26 9 14 1012.4 1012.2 0.0
02/02:00pm 34.4 31.7 8.9 21 14.5 NNW 13 24 7 13 1012.8 1012.6 0.0
02/01:30pm 34.6 32.9 8.4 20 14.8 W 7 13 4 7 1013.2 1013.0 0.0
02/01:00pm 33.7 32.2 9.0 22 14.0 WSW 7 11 4 6 1013.9 1013.7 0.0
02/12:30pm 32.7 31.1 8.9 23 13.4 NNE 7 11 4 6 1014.5 1014.3 0.0
02/12:00pm 32.3 30.8 9.2 24 13.0 NW 7 11 4 6 1015.1 1014.9 0.0
02/11:30am 31.8 31.0 11.0 28 12.0 S 6 11 3 6 1015.6 1015.4 0.0
02/11:00am 30.2 29.7 12.6 34 10.4 W 7 11 4 6 1016.1 1015.9 0.0
02/10:30am 29.3 28.6 13.1 37 9.6 SSW 9 13 5 7 1016.3 1016.1 0.0
02/10:00am 27.7 27.1 13.6 42 8.4 S 9 17 5 9 1016.3 1016.1 0.0
02/09:30am 26.3 26.6 16.0 53 6.3 S 9 15 5 8 1016.3 1016.1 0.0
02/09:00am 24.9 25.6 16.1 58 5.4 SSW 7 15 4 8 1016.3 1016.1 0.0
02/08:30am 23.1 25.2 17.3 70 3.6 SSW 2 7 1 4 1016.1 1015.9 0.0
02/08:00am 19.8 22.4 17.4 86 1.5 CALM 0 0 0 0 1015.8 1015.6 0.0
02/07:30am 18.1 20.1 16.1 88 1.2 CALM 0 0 0 0 1015.3 1015.1 0.0
02/07:00am 17.8 19.1 15.2 85 1.5 S 2 6 1 3 1015.0 1014.8 0.0
02/06:30am 18.3 19.4 16.6 90 1.0 S 6 7 3 4 1014.6 1014.4 0.0
02/06:00am 17.7 19.7 16.0 90 1.0 CALM 0 0 0 0 1014.3 1014.1 0.0
02/05:30am 17.3 18.7 15.5 89 1.1 S 2 6 1 3 1014.1 1013.9 0.0
02/05:00am 17.9 19.2 16.1 89 1.1 SSW 4 7 2 4 1014.1 1013.9 0.0
02/04:30am 18.2 20.4 16.4 89 1.1 CALM 0 0 0 0 1014.1 1013.9 0.0
02/04:00am 18.5 20.7 16.5 88 1.2 CALM 0 0 0 0 1014.2 1014.0 0.0
02/03:30am 18.5 20.6 16.3 87 1.3 CALM 0 0 0 0 1014.2 1014.0 0.0
02/03:00am 19.2 21.5 16.8 86 1.4 CALM 0 4 0 2 1014.1 1013.9 0.0
02/02:30am 19.6 22.1 17.2 86 1.5 CALM 0 0 0 0 1014.3 1014.1 0.0
02/02:00am 19.9 22.3 16.9 83 1.8 CALM 0 0 0 0 1014.4 1014.2 0.0
02/01:30am 20.3 22.7 16.9 81 2.1 CALM 0 0 0 0 1014.7 1014.5 0.0
02/01:00am 20.8 23.1 16.8 78 2.4 CALM 0 0 0 0 1014.9 1014.7 0.0
02/12:30am 22.4 23.9 17.5 74 3.0 NW 6 6 3 3 1015.1 1014.9 0.0
02/12:00am 23.4 25.7 17.6 70 3.6 NW 2 7 1 4 1015.0 1014.8 0.0
 
Date/Time
CST
Temp
°C
App
Temp
°C
Dew
Point
Rel
Hum
%
Delta-T
°C
Wind Press
QNH
hPa
Press
MSL
hPa
Rain
since 9 am
mm
Dir
 
Spd
km/h
Gust
km/h
Spd
kts
Gust
kts
01/11:30pm 24.4 25.8 17.9 67 4.1 NW 7 13 4 7 1015.0 1014.8 0.0
01/11:00pm 24.8 25.8 17.8 65 4.4 NW 9 15 5 8 1015.0 1014.8 0.0
01/10:30pm 25.0 26.4 17.7 64 4.6 NW 7 11 4 6 1014.8 1014.6 0.0
01/10:00pm 25.2 26.6 17.7 63 4.7 WNW 7 13 4 7 1014.6 1014.4 0.0

Other Formats:

Comma delimited format used in spreadsheet applications
http://www.bom.gov.au/fwo/IDD60801/IDD60801.94100.axf

JavaScript Object Notation format (JSON) in row-major order
http://www.bom.gov.au/fwo/IDD60801/IDD60801.94100.json